Weather observations for the past three days for
Taylorville, Taylorville Municipal Airport
Imperial (Metric)
Date Time (cdt) Wind (mph) Vis. (mi.) Weather Sky Cond. Temperature (ºF) Relative Humidity Wind Chill (°F) Heat Index (°F) Pressure Precipitation (in)
Air Dwpt 6 hour altimeter (in) sea level (mb) 1 hr 3 hr 6 hr
Max. Min.
04 06:59 S 15 G 18 10.00 Partly Cloudy SCT110 57.2 51.8 82% 29.73 0.0
04 06:40 S 14 G 23 10.00 Fair CLR 57.2 51.8 82% 29.73 0.0
04 06:21 S 14 G 22 10.00 Fair CLR 57.2 51.8 82% 29.73 0.0
04 06:00 S 13 10.00 Fair CLR 57.2 51.8 82% 29.74 0.0
04 05:39 S 12 10.00 Fair CLR 57.2 51.8 82% 29.74 0.0
04 05:19 S 10 10.00 Fair CLR 57.2 51.8 82% 29.74 0.0
04 04:59 S 8 10.00 Fair CLR 57.2 51.8 82% 29.73 0.0
04 04:39 S 13 10.00 Partly Cloudy SCT090 SCT120 57.2 51.8 82% 29.74 0.0
04 04:19 W 7 10.00 Thunderstorm SCT080 BKN100 57.2 51.8 82% 29.76 0.0
04 04:02 SW 9 10.00 Mostly Cloudy SCT080 BKN100 59 51.8 77% 29.74 0.0
04 03:39 SW 15 10.00 Thunderstorm SCT090 BKN110 57.2 51.8 82% 29.76 0.0
04 03:21 SW 9 G 20 10.00 Overcast SCT090 OVC120 59 51.8 77% 29.75 0.0
04 03:01 S 6 10.00 Thunderstorm BKN090 OVC110 57.2 53.6 88% 29.74 0.0
04 02:40 SW 6 10.00 Thunderstorm BKN090 BKN120 55.4 51.8 88% 29.78 0.0
04 02:20 S 3 10.00 Thunderstorm in Vicinity SCT080 SCT085 BKN110 55.4 51.8 88% 29.76 0.0
04 01:59 S 3 10.00 Partly Cloudy SCT075 SCT090 SCT110 55.4 51.8 88% 29.77 0.0
04 01:39 S 7 10.00 Thunderstorm in Vicinity SCT049 SCT070 SCT110 55.4 50 82% 29.77 0.0 0.05
04 01:22 S 8 7.00 Thunderstorm in Vicinity SCT049 SCT080 BKN085 55.4 50 82% 29.78 0.0 0.05
04 01:00 S 9 10.00 Overcast BKN075 OVC085 57.2 48.2 72% 29.78 0.0
04 00:42 S 8 10.00 Mostly Cloudy SCT075 BKN085 57.2 48.2 72% 29.79 0.0
04 00:19 S 10 10.00 Partly Cloudy SCT075 SCT110 57.2 48.2 72% 29.79 0.0
04 00:01 SE 3 10.00 Mostly Cloudy SCT075 BKN100 57.2 48.2 72% 29.78 0.0
03 23:41 SE 5 10.00 Mostly Cloudy SCT085 BKN100 59 48.2 68% 29.78 0.0
03 23:19 Calm 10.00 Mostly Cloudy SCT075 BKN085 BKN110 59 48.2 68% 29.8 0.0
03 22:59 SE 5 10.00 Partly Cloudy SCT080 SCT090 SCT120 59 48.2 68% 29.8 0.0
03 22:39 SW 5 10.00 Thunderstorm in Vicinity SCT080 SCT100 BKN120 60.8 48.2 63% 29.82 0.0
03 22:19 S 8 10.00 Overcast SCT075 OVC100 60.8 48.2 63% 29.82 0.0
03 21:59 SE 6 10.00 Overcast SCT075 OVC110 60.8 48.2 63% 29.82 0.0
03 21:39 SE 5 10.00 Overcast OVC110 62.6 48.2 60% 29.82 0.0
03 21:19 SE 8 10.00 Thunderstorm in Vicinity SCT100 OVC120 62.6 46.4 56% 29.81 0.0
03 20:59 S 3 10.00 Overcast SCT075 SCT090 OVC110 62.6 46.4 56% 29.81 0.0
03 20:39 SE 5 10.00 Overcast SCT075 BKN090 OVC110 62.6 46.4 56% 29.81 0.0
03 20:19 SE 9 10.00 Thunderstorm in Vicinity SCT075 BKN100 OVC120 62.6 46.4 56% 29.8 0.0
03 19:59 SE 7 10.00 Overcast SCT075 OVC100 64.4 46.4 52% 29.8 0.0
03 19:39 SE 8 10.00 Overcast BKN075 BKN090 OVC110 66.2 46.4 49% 29.8 0.0
03 19:20 S 7 10.00 Overcast BKN075 BKN090 OVC110 66.2 44.6 46% 29.8 0.0
03 18:59 S 10 10.00 Thunderstorm in Vicinity SCT075 BKN090 OVC110 66.2 44.6 46% 29.8 0.0
03 18:40 S 9 10.00 Overcast SCT075 OVC110 68 44.6 43% 29.8 0.0
03 18:19 S 12 G 16 10.00 Partly Cloudy SCT120 69.8 42.8 38% 29.8 0.0
03 17:59 S 16 10.00 Partly Cloudy SCT080 SCT120 69.8 42.8 38% 29.81 0.0
03 17:42 S 15 G 25 10.00 Partly Cloudy SCT080 71.6 42.8 36% 29.81 0.0
03 17:19 SW 15 G 26 10.00 Fair CLR 71.6 42.8 36% 29.82 0.0
03 16:59 SW 16 10.00 Fair CLR 71.6 42.8 36% 29.82 0.0
03 16:40 SW 21 G 28 10.00 Fair and Breezy CLR 71.6 41 33% 29.83 0.0
03 16:20 S 22 G 28 10.00 Fair and Breezy CLR 69.8 39.2 33% 29.83 0.0
03 15:59 SW 23 G 30 10.00 Fair and Breezy CLR 69.8 39.2 33% 29.84 0.0
03 15:39 SW 22 G 29 10.00 Partly Cloudy and Breezy SCT028 SCT110 69.8 39.2 33% 29.85 0.0
03 15:22 S 22 G 30 10.00 Mostly Cloudy and Breezy SCT021 SCT030 BKN100 66.2 39.2 37% 29.85 0.0
03 15:01 S 20 G 33 10.00 Mostly Cloudy SCT020 SCT030 BKN100 66.2 39.2 37% 29.86 0.0
03 14:40 S 21 G 33 10.00 Mostly Cloudy and Breezy BKN100 66.2 39.2 37% 29.87 0.0
03 14:20 S 21 G 26 10.00 Mostly Cloudy and Breezy BKN110 66.2 39.2 37% 29.87 0.0
03 14:01 S 21 G 32 10.00 Mostly Cloudy and Breezy BKN110 64.4 39.2 40% 29.88 0.0
03 13:40 SW 23 G 31 10.00 Mostly Cloudy and Breezy BKN110 64.4 39.2 40% 29.92 0.0
03 13:21 SW 25 G 33 10.00 Mostly Cloudy and Breezy BKN120 62.6 37.4 39% 29.92 0.0
03 13:00 S 23 G 30 10.00 Partly Cloudy and Breezy SCT120 64.4 39.2 40% 29.94 0.0
03 12:39 SW 20 G 28 10.00 Partly Cloudy SCT120 64.4 41 43% 29.97 0.0
03 12:19 SW 22 G 28 10.00 Partly Cloudy and Breezy SCT120 64.4 41 43% 29.99 0.0
03 12:00 S 23 G 28 10.00 Partly Cloudy and Breezy SCT120 62.6 39.2 42% 30 0.0
03 11:20 S 17 G 30 10.00 Partly Cloudy SCT120 60.8 39.2 45% 30.01 0.0
03 10:59 S 17 G 25 10.00 Partly Cloudy SCT120 60.8 41 48% 30.03 0.0
03 10:41 SW 17 G 24 10.00 Fair CLR 60.8 41 48% 30.04 0.0
03 10:19 SW 18 G 26 10.00 Fair CLR 59 39.2 48% 30.04 0.0
03 09:59 S 17 G 24 10.00 Fair CLR 57.2 41 55% 30.05 0.0
03 09:42 S 16 10.00 Fair CLR 57.2 41 55% 30.05 0.0
03 09:19 S 17 G 22 10.00 Fair CLR 55.4 41 59% 30.05 0.0
03 09:00 S 16 10.00 Fair CLR 53.6 41 63% 30.06 0.0
03 08:39 S 15 G 22 10.00 Partly Cloudy SCT110 51.8 41 67% 30.06 0.0
03 08:19 S 14 G 21 10.00 Fair CLR 51.8 41 67% 30.07 0.0
03 07:59 S 16 G 23 10.00 Partly Cloudy SCT120 48.2 39.2 71% 43 30.07 0.0
03 07:39 S 12 10.00 Partly Cloudy SCT120 48.2 41 76% 44 30.08 0.0
03 07:19 S 12 10.00 Fair CLR 46.4 39.2 76% 42 30.07 0.0
03 06:59 S 10 10.00 Fair CLR 46.4 39.2 76% 42 30.06 0.0
03 06:39 S 9 10.00 Fair CLR 44.6 39.2 81% 40 30.05 0.0
03 06:19 S 8 10.00 Fair CLR 42.8 39.2 87% 39 30.05 0.0
03 05:59 S 9 10.00 Fair CLR 42.8 39.2 87% 38 30.05 0.0
03 05:39 S 9 10.00 Fair CLR 42.8 37.4 81% 38 30.05 0.0
03 05:19 S 7 10.00 Fair CLR 42.8 37.4 81% 39 30.05 0.0
03 04:39 S 8 10.00 Fair CLR 42.8 37.4 81% 39 30.06 0.0
03 04:19 S 7 10.00 Fair CLR 42.8 37.4 81% 39 30.07 0.0
03 03:59 S 8 10.00 Fair CLR 42.8 37.4 81% 39 30.07 0.0
03 03:39 S 7 10.00 Fair CLR 42.8 37.4 81% 39 30.08 0.0
03 03:20 S 8 10.00 Fair CLR 42.8 35.6 76% 39 30.08 0.0
03 03:00 S 7 10.00 Fair CLR 42.8 35.6 76% 39 30.08 0.0
03 02:40 S 8 10.00 Fair CLR 42.8 37.4 81% 39 30.08 0.0
03 02:19 S 7 10.00 Fair CLR 42.8 37.4 81% 39 30.08 0.0
03 01:59 S 6 10.00 Fair CLR 42.8 35.6 76% 40 30.08 0.0
03 01:39 S 6 10.00 Fair CLR 42.8 35.6 76% 40 30.09 0.0
03 01:20 S 5 10.00 Fair CLR 42.8 35.6 76% 41 30.09 0.0
03 01:00 S 6 10.00 Fair CLR 42.8 35.6 76% 40 30.09 0.0
03 00:39 S 3 10.00 Fair CLR 44.6 35.6 71% 30.1 0.0
03 00:19 Calm 10.00 Fair CLR 44.6 35.6 71% 30.1 0.0
02 23:59 S 3 10.00 Fair CLR 44.6 35.6 71% 30.1 0.0
02 23:39 Calm 10.00 Fair CLR 44.6 37.4 76% 30.1 0.0
02 23:19 Calm 10.00 Fair CLR 42.8 39.2 87% 30.1 0.0
02 22:59 S 3 10.00 Fair CLR 42.8 39.2 87% 30.1 0.0
02 22:39 Calm 10.00 Fair CLR 42.8 39.2 87% 30.1 0.0
02 22:21 Calm 10.00 Fair CLR 44.6 39.2 81% 30.1 0.0
02 21:59 Calm 10.00 Partly Cloudy SCT070 44.6 39.2 81% 30.1 0.0
02 21:40 Calm 10.00 Partly Cloudy SCT070 46.4 35.6 66% 30.1 0.0
02 21:19 Calm 10.00 Fair CLR 46.4 37.4 71% 30.1 0.0
02 20:59 Calm 10.00 Fair CLR 46.4 37.4 71% 30.09 0.0
02 20:39 Calm 10.00 Fair CLR 50 32 50% 30.09 0.0
02 20:19 Calm 10.00 Fair CLR 51.8 35.6 54% 30.09 0.0
02 19:59 Calm 10.00 Fair CLR 51.8 33.8 50% 30.08 0.0
02 19:39 N 5 10.00 Partly Cloudy SCT080 53.6 32 44% 30.08 0.0
02 19:19 W 3 10.00 Partly Cloudy SCT080 55.4 33.8 44% 30.08 0.0
02 19:01 NW 7 10.00 Partly Cloudy SCT080 55.4 30.2 38% 30.08 0.0
02 18:39 NW 8 10.00 Partly Cloudy SCT080 57.2 28.4 33% 30.08 0.0
02 18:20 W 8 10.00 Fair CLR 57.2 28.4 33% 30.08 0.0
02 18:00 NW 7 10.00 Partly Cloudy SCT085 57.2 30.2 36% 30.08 0.0
02 17:42 NW 6 10.00 Partly Cloudy SCT085 57.2 30.2 36% 30.08 0.0
02 17:21 NW 8 10.00 Partly Cloudy SCT075 SCT085 57.2 30.2 36% 30.08 0.0
02 17:00 N 9 10.00 Mostly Cloudy SCT075 BKN090 55.4 30.2 38% 30.08 0.0
02 16:40 N 3 10.00 Mostly Cloudy SCT075 BKN090 57.2 30.2 36% 30.08 0.0
02 16:19 NW 7 10.00 Overcast OVC090 55.4 30.2 38% 30.09 0.0
02 15:59 W 7 10.00 Mostly Cloudy BKN090 55.4 28.4 36% 30.09 0.0
02 15:41 N 3 10.00 Mostly Cloudy SCT075 BKN090 57.2 32 39% 30.1 0.0
02 15:19 N 7 G 10 10.00 Overcast BKN065 OVC090 55.4 32 41% 30.1 0.0
02 15:00 N 5 10.00 Mostly Cloudy SCT065 BKN090 55.4 30.2 38% 30.1 0.0
02 14:40 NW 7 10.00 Overcast BKN080 OVC090 55.4 30.2 38% 30.11 0.0
02 14:19 NE 8 10.00 Mostly Cloudy SCT080 BKN090 55.4 32 41% 30.11 0.0
02 14:00 NE 3 10.00 Partly Cloudy SCT060 SCT090 53.6 32 44% 30.11 0.0
02 13:42 NE 7 G 16 10.00 Mostly Cloudy SCT060 BKN080 53.6 33.8 47% 30.12 0.0
02 13:20 NE 7 10.00 Overcast SCT060 SCT070 OVC080 53.6 33.8 47% 30.12 0.0
02 13:00 N 9 10.00 Overcast SCT050 OVC080 53.6 35.6 51% 30.12 0.0
02 12:20 NE 8 10.00 Mostly Cloudy SCT048 SCT060 BKN080 53.6 33.8 47% 30.13 0.0
02 12:01 N 7 10.00 Partly Cloudy SCT048 SCT060 SCT080 53.6 35.6 51% 30.13 0.0
02 11:41 NE 9 10.00 Partly Cloudy SCT043 SCT050 53.6 37.4 54% 30.14 0.0
02 11:20 N 5 10.00 Fair CLR 53.6 35.6 51% 30.14 0.0
02 10:59 N 6 10.00 Fair CLR 53.6 35.6 51% 30.14 0.0
02 10:39 NE 7 10.00 Fair CLR 53.6 37.4 54% 30.14 0.0
02 10:20 E 8 10.00 Partly Cloudy SCT090 51.8 35.6 54% 30.14 0.0
02 10:00 E 9 10.00 Mostly Cloudy BKN090 51.8 35.6 54% 30.13 0.0
02 09:41 NE 7 10.00 Overcast OVC090 50 35.6 58% 48 30.13 0.0
02 09:20 E 7 10.00 Overcast OVC090 50 37.4 62% 48 30.13 0.0
02 09:01 E 9 10.00 Overcast OVC080 48.2 35.6 62% 45 30.13 0.0
02 08:40 E 10 10.00 Mostly Cloudy SCT080 BKN090 48.2 35.6 62% 44 30.12 0.0
02 08:19 E 13 10.00 Mostly Cloudy SCT080 BKN100 46.4 35.6 66% 41 30.11 0.0
02 07:59 E 8 G 16 10.00 Overcast OVC100 44.6 35.6 71% 41 30.11 0.0
02 07:39 E 10 10.00 Overcast OVC100 42.8 35.6 76% 38 30.11 0.0
02 07:19 NE 8 10.00 Overcast OVC100 42.8 37.4 81% 39 30.11 0.0
02 07:00 NE 10 10.00 Overcast OVC100 42.8 37.4 81% 38 30.1 0.0
02 06:40 NE 9 10.00 Overcast OVC100 42.8 37.4 81% 38 30.09 0.0
02 06:21 NE 7 10.00 Overcast OVC100 42.8 39.2 87% 39 30.08 0.0
02 06:00 E 8 10.00 Overcast OVC100 42.8 37.4 81% 39 30.08 0.0
02 05:40 NE 6 10.00 Mostly Cloudy BKN100 44.6 39.2 81% 42 30.08 0.0
02 05:19 NE 3 10.00 Partly Cloudy SCT100 42.8 39.2 87% 30.07 0.0
02 04:59 NE 3 10.00 Overcast SCT050 SCT065 OVC110 44.6 39.2 81% 30.08 0.0
02 04:43 Calm 10.00 Mostly Cloudy SCT050 BKN065 BKN110 44.6 41 87% 30.08 0.0
02 04:19 NE 5 10.00 Overcast OVC050 46.4 41 82% 45 30.08 0.0
02 04:00 Calm 10.00 Overcast BKN050 OVC110 46.4 41 82% 30.07 0.0
02 03:43 Calm 10.00 Overcast OVC110 46.4 41 82% 30.06 0.0
02 03:19 E 3 10.00 Overcast SCT050 SCT075 OVC110 46.4 41 82% 30.06 0.0
02 02:59 Calm 10.00 Overcast BKN060 OVC075 48.2 42.8 82% 30.06 0.0
02 02:42 Calm 10.00 Overcast OVC060 46.4 41 82% 30.06 0.0
02 01:59 E 3 10.00 Overcast OVC060 46.4 42.8 87% 30.06 0.0
02 01:40 E 3 10.00 Overcast BKN060 OVC080 46.4 42.8 87% 30.07 0.0
02 01:19 E 5 10.00 Overcast SCT060 OVC080 46.4 42.8 87% 45 30.07 0.0
02 01:01 Calm 10.00 Overcast OVC080 46.4 41 82% 30.07 0.0
02 00:22 Calm 10.00 Overcast BKN090 OVC110 46.4 41 82% 30.06 0.0
02 00:00 E 5 10.00 Overcast SCT090 OVC110 48.2 39.2 71% 47 30.07 0.0
01 23:39 E 6 10.00 Mostly Cloudy BKN110 46.4 39.2 76% 44 30.06 0.0
01 23:21 E 5 10.00 Fair CLR 48.2 37.4 66% 47 30.07 0.0
01 22:59 E 6 10.00 Partly Cloudy SCT100 48.2 37.4 66% 46 30.06 0.0
01 22:39 NE 5 10.00 Mostly Cloudy SCT075 BKN100 48.2 39.2 71% 47 30.07 0.0
01 22:20 NE 6 10.00 Overcast SCT075 OVC100 50 37.4 62% 48 30.07 0.0
01 21:59 NE 7 10.00 Mostly Cloudy SCT075 SCT080 BKN100 51.8 39.2 62% 30.07 0.0
01 21:40 NE 5 10.00 Overcast SCT065 BKN080 OVC090 51.8 37.4 58% 30.06 0.0
01 21:19 NE 5 10.00 Overcast BKN090 OVC120 51.8 37.4 58% 30.05 0.0
01 20:59 N 6 10.00 Mostly Cloudy SCT080 SCT100 BKN120 50 39.2 67% 48 30.05 0.0
01 20:40 N 8 10.00 Overcast BKN080 OVC090 51.8 37.4 58% 30.04 0.0
01 20:19 N 6 10.00 Overcast SCT060 BKN080 OVC090 51.8 37.4 58% 30.03 0.0
01 19:59 NW 5 10.00 Overcast SCT065 OVC080 51.8 41 67% 30.03 0.0
01 19:42 N 6 10.00 Overcast BKN065 OVC090 51.8 39.2 62% 30.02 0.0
01 19:20 N 7 10.00 Mostly Cloudy BKN090 BKN110 53.6 37.4 54% 30.02 0.0
01 19:00 N 9 10.00 Mostly Cloudy SCT070 BKN090 BKN110 53.6 35.6 51% 30.01 0.0
01 18:40 N 13 G 17 10.00 Overcast BKN070 OVC080 55.4 33.8 44% 30 0.0
01 18:19 NW 7 10.00 Overcast BKN075 OVC085 57.2 33.8 41% 30 0.0
01 17:59 N 3 10.00 Overcast SCT075 OVC085 57.2 33.8 41% 30.01 0.0
01 17:39 Calm 10.00 Mostly Cloudy SCT060 SCT075 BKN085 57.2 30.2 36% 30.01 0.0
01 17:20 NW 3 10.00 Mostly Cloudy SCT060 SCT095 BKN120 57.2 32 39% 30.01 0.0
01 17:00 N 3 10.00 Partly Cloudy SCT110 57.2 32 39% 30.01 0.0
01 16:39 NW 5 10.00 Mostly Cloudy BKN110 57.2 32 39% 30.02 0.0
01 16:20 W 7 10.00 Mostly Cloudy BKN110 57.2 33.8 41% 30.03 0.0
01 16:01 W 6 10.00 Partly Cloudy SCT095 57.2 33.8 41% 30.04 0.0
01 15:39 W 6 10.00 Overcast BKN085 OVC095 55.4 33.8 44% 30.05 0.0
01 15:21 NW 8 10.00 Overcast SCT075 OVC095 57.2 33.8 41% 30.05 0.0
01 14:59 N 6 10.00 Mostly Cloudy SCT060 SCT095 BKN110 55.4 33.8 44% 30.05 0.0
01 14:39 NW 8 10.00 Mostly Cloudy SCT060 BKN095 57.2 33.8 41% 30.06 0.0
01 14:19 N 7 10.00 Mostly Cloudy SCT065 SCT085 BKN095 57.2 35.6 44% 30.06 0.0
01 13:59 NW 9 10.00 Mostly Cloudy SCT065 BKN075 55.4 33.8 44% 30.06 0.0
01 13:39 N 12 G 16 10.00 Mostly Cloudy SCT055 BKN070 BKN080 55.4 35.6 47% 30.06 0.0
01 13:20 N 7 10.00 Mostly Cloudy BKN055 57.2 35.6 44% 30.06 0.0
01 13:01 NW 7 G 17 10.00 Mostly Cloudy BKN065 55.4 35.6 47% 30.06 0.0
01 12:39 W 9 G 17 10.00 Partly Cloudy SCT050 55.4 35.6 47% 30.06 0.0
01 12:22 NW 14 G 18 10.00 Partly Cloudy SCT049 55.4 35.6 47% 30.06 0.0
01 12:01 N 14 10.00 Partly Cloudy SCT049 SCT055 53.6 33.8 47% 30.07 0.0
01 11:41 NW 8 10.00 Partly Cloudy SCT047 53.6 37.4 54% 30.07 0.0
01 11:21 NW 8 10.00 Fair CLR 53.6 37.4 54% 30.08 0.0
01 11:00 NW 7 G 10 10.00 Partly Cloudy SCT037 51.8 37.4 58% 30.08 0.0
01 10:39 N 9 10.00 Fair CLR 51.8 37.4 58% 30.07 0.0
01 10:20 N 9 G 18 10.00 Fair CLR 51.8 37.4 58% 30.07 0.0
01 09:59 N 13 10.00 Fair CLR 51.8 37.4 58% 30.06 0.0
01 09:39 N 13 G 17 10.00 Fair CLR 50 39.2 67% 46 30.06 0.0
01 09:19 N 9 10.00 Fair CLR 50 39.2 67% 47 30.05 0.0
01 08:59 N 13 10.00 Fair CLR 48.2 39.2 71% 43 30.05 0.0
01 08:41 NW 12 10.00 Fair CLR 48.2 39.2 71% 44 30.05 0.0
01 08:19 N 12 10.00 Fair CLR 46.4 37.4 71% 42 30.05 0.0
01 07:59 NW 10 10.00 Fair CLR 46.4 37.4 71% 42 30.05 0.0
01 07:42 NW 12 G 17 10.00 Fair CLR 44.6 35.6 71% 39 30.05 0.0
01 07:19 NW 12 10.00 Fair CLR 44.6 35.6 71% 39 30.04 0.0
Date Time (cdt) Wind (mph) Vis. (mi.) Weather Sky Cond. Air Dwpt Max. Min. Relative Humidity Wind Chill (°F) Heat Index (°F) altimeter (in) sea level (mb) 1 hr 3 hr 6 hr
6 hour
Temperature (ºF) Pressure Precipitation (in)